< < Back
Terminal Aerodrome Forecast


Current Version              Previous Versions:   1  2  3  4  5  6  7  8  9  

Terminal Aerodrome Forecast

860
FTUS42 KMLB 302326
TAFDAB
TAF
KDAB 302326Z 0100/0124 29005KT P6SM FEW025 SCT070 SCT250
     FM011400 26008KT P6SM FEW025 SCT250
     FM011900 23009KT P6SM FEW040 SCT060 SCT250=

Latest METAR

876
SAUS80 KWBC 012100 RRH
MTRDAB
METAR KDAB 012053Z 24012KT 10SM FEW025 SCT085 BKN140 BKN250 32/22 A3008
RMK AO2 SLP185 CB DSNT S SW 60000 T03170217 58017


USA.gov is the U.S. government's official web portal to all federal, state and local government web resources and services.